sensor_id;sensor_type;location;lat;lon;timestamp;P1;durP1;ratioP1;P2;durP2;ratioP2
9667;SDS011;4872;48.316;10.650;2024-03-06T05:07:17;28.77;;;21.47;;
9667;SDS011;4872;48.316;10.650;2024-03-06T05:09:44;28.47;;;20.07;;
9667;SDS011;4872;48.316;10.650;2024-03-06T05:12:11;27.53;;;19.17;;
9667;SDS011;4872;48.316;10.650;2024-03-06T05:14:37;26.53;;;20.93;;
9667;SDS011;4872;48.316;10.650;2024-03-06T05:17:04;26.87;;;19.33;;
9667;SDS011;4872;48.316;10.650;2024-03-06T05:19:31;25.77;;;20.70;;
9667;SDS011;4872;48.316;10.650;2024-03-06T05:21:58;27.40;;;22.10;;
9667;SDS011;4872;48.316;10.650;2024-03-06T05:24:26;29.57;;;22.50;;
9667;SDS011;4872;48.316;10.650;2024-03-06T05:26:53;26.60;;;20.93;;
9667;SDS011;4872;48.316;10.650;2024-03-06T05:29:19;24.43;;;19.10;;
9667;SDS011;4872;48.316;10.650;2024-03-06T05:31:46;27.53;;;20.27;;
9667;SDS011;4872;48.316;10.650;2024-03-06T05:34:13;25.63;;;19.90;;
9667;SDS011;4872;48.316;10.650;2024-03-06T05:36:40;25.17;;;19.57;;
9667;SDS011;4872;48.316;10.650;2024-03-06T05:39:07;26.63;;;19.00;;
9667;SDS011;4872;48.316;10.650;2024-03-06T05:41:38;26.70;;;20.43;;
9667;SDS011;4872;48.316;10.650;2024-03-06T05:44:06;26.30;;;19.57;;
9667;SDS011;4872;48.316;10.650;2024-03-06T05:46:33;28.17;;;21.17;;
9667;SDS011;4872;48.316;10.650;2024-03-06T05:48:59;28.93;;;21.10;;
9667;SDS011;4872;48.316;10.650;2024-03-06T05:51:27;26.63;;;19.97;;
9667;SDS011;4872;48.316;10.650;2024-03-06T05:53:54;30.03;;;22.20;;
9667;SDS011;4872;48.316;10.650;2024-03-06T05:56:21;31.33;;;22.20;;
9667;SDS011;4872;48.316;10.650;2024-03-06T05:58:49;29.73;;;21.43;;
9667;SDS011;4872;48.316;10.650;2024-03-06T06:01:16;28.93;;;21.53;;
9667;SDS011;4872;48.316;10.650;2024-03-06T06:03:45;28.60;;;20.87;;
9667;SDS011;4872;48.316;10.650;2024-03-06T06:06:14;30.90;;;21.13;;
9667;SDS011;4872;48.316;10.650;2024-03-06T06:08:40;28.87;;;22.13;;
9667;SDS011;4872;48.316;10.650;2024-03-06T06:11:09;28.27;;;21.77;;
9667;SDS011;4872;48.316;10.650;2024-03-06T06:13:36;30.37;;;22.33;;
9667;SDS011;4872;48.316;10.650;2024-03-06T06:16:04;28.30;;;20.90;;
9667;SDS011;4872;48.316;10.650;2024-03-06T06:18:32;30.77;;;21.80;;
9667;SDS011;4872;48.316;10.650;2024-03-06T06:20:58;31.17;;;23.47;;
9667;SDS011;4872;48.316;10.650;2024-03-06T06:23:25;32.03;;;23.07;;
9667;SDS011;4872;48.316;10.650;2024-03-06T06:25:53;33.07;;;23.73;;
9667;SDS011;4872;48.316;10.650;2024-03-06T06:28:19;32.80;;;24.87;;
9667;SDS011;4872;48.316;10.650;2024-03-06T06:30:48;32.40;;;23.27;;
9667;SDS011;4872;48.316;10.650;2024-03-06T06:33:18;28.47;;;21.93;;
9667;SDS011;4872;48.316;10.650;2024-03-06T06:35:45;32.57;;;22.97;;
9667;SDS011;4872;48.316;10.650;2024-03-06T06:38:12;31.33;;;23.63;;
9667;SDS011;4872;48.316;10.650;2024-03-06T06:40:39;30.17;;;22.53;;
9667;SDS011;4872;48.316;10.650;2024-03-06T06:43:06;29.00;;;23.17;;
9667;SDS011;4872;48.316;10.650;2024-03-06T06:45:33;27.33;;;21.03;;
9667;SDS011;4872;48.316;10.650;2024-03-06T06:48:00;25.57;;;20.33;;
9667;SDS011;4872;48.316;10.650;2024-03-06T06:50:29;27.60;;;21.37;;
9667;SDS011;4872;48.316;10.650;2024-03-06T06:52:58;28.43;;;24.07;;
9667;SDS011;4872;48.316;10.650;2024-03-06T06:55:25;31.10;;;22.77;;
9667;SDS011;4872;48.316;10.650;2024-03-06T06:57:52;29.10;;;21.43;;
9667;SDS011;4872;48.316;10.650;2024-03-06T07:00:19;34.27;;;24.27;;
9667;SDS011;4872;48.316;10.650;2024-03-06T07:02:47;31.40;;;23.80;;
9667;SDS011;4872;48.316;10.650;2024-03-06T07:05:14;31.30;;;23.20;;
9667;SDS011;4872;48.316;10.650;2024-03-06T07:07:43;31.13;;;21.67;;
9667;SDS011;4872;48.316;10.650;2024-03-06T07:10:09;30.50;;;20.70;;
9667;SDS011;4872;48.316;10.650;2024-03-06T07:12:36;27.57;;;21.10;;
9667;SDS011;4872;48.316;10.650;2024-03-06T07:15:03;31.10;;;23.10;;
9667;SDS011;4872;48.316;10.650;2024-03-06T07:17:31;32.87;;;24.23;;
9667;SDS011;4872;48.316;10.650;2024-03-06T07:19:58;30.83;;;24.13;;
9667;SDS011;4872;48.316;10.650;2024-03-06T07:22:25;33.63;;;23.80;;
9667;SDS011;4872;48.316;10.650;2024-03-06T07:24:53;32.47;;;23.13;;
9667;SDS011;4872;48.316;10.650;2024-03-06T07:27:20;32.07;;;22.97;;
9667;SDS011;4872;48.316;10.650;2024-03-06T07:29:47;34.33;;;23.30;;
9667;SDS011;4872;48.316;10.650;2024-03-06T07:32:14;34.47;;;23.90;;
9667;SDS011;4872;48.316;10.650;2024-03-06T07:34:40;33.43;;;24.80;;
9667;SDS011;4872;48.316;10.650;2024-03-06T07:37:07;32.83;;;23.90;;
9667;SDS011;4872;48.316;10.650;2024-03-06T07:39:34;34.40;;;23.23;;
9667;SDS011;4872;48.316;10.650;2024-03-06T07:42:02;33.83;;;25.03;;
9667;SDS011;4872;48.316;10.650;2024-03-06T07:44:29;31.90;;;22.40;;
9667;SDS011;4872;48.316;10.650;2024-03-06T07:46:56;32.07;;;23.30;;
9667;SDS011;4872;48.316;10.650;2024-03-06T07:49:22;31.83;;;22.97;;
9667;SDS011;4872;48.316;10.650;2024-03-06T07:51:49;31.40;;;22.60;;
9667;SDS011;4872;48.316;10.650;2024-03-06T07:54:16;34.97;;;23.57;;
9667;SDS011;4872;48.316;10.650;2024-03-06T07:56:43;28.77;;;20.57;;
9667;SDS011;4872;48.316;10.650;2024-03-06T07:59:11;26.27;;;19.53;;
9667;SDS011;4872;48.316;10.650;2024-03-06T08:01:40;27.30;;;19.60;;
9667;SDS011;4872;48.316;10.650;2024-03-06T08:04:07;26.27;;;19.67;;
9667;SDS011;4872;48.316;10.650;2024-03-06T08:06:33;25.20;;;19.30;;
9667;SDS011;4872;48.316;10.650;2024-03-06T08:09:02;24.97;;;18.33;;
9667;SDS011;4872;48.316;10.650;2024-03-06T08:11:29;23.70;;;17.67;;
9667;SDS011;4872;48.316;10.650;2024-03-06T08:13:56;25.00;;;17.30;;
9667;SDS011;4872;48.316;10.650;2024-03-06T08:16:25;25.00;;;16.67;;
9667;SDS011;4872;48.316;10.650;2024-03-06T08:18:51;22.43;;;16.47;;
9667;SDS011;4872;48.316;10.650;2024-03-06T08:21:18;24.10;;;17.47;;
9667;SDS011;4872;48.316;10.650;2024-03-06T08:23:45;22.27;;;16.73;;
9667;SDS011;4872;48.316;10.650;2024-03-06T08:26:13;21.47;;;16.27;;
9667;SDS011;4872;48.316;10.650;2024-03-06T08:28:39;21.77;;;15.97;;
9667;SDS011;4872;48.316;10.650;2024-03-06T08:31:06;19.80;;;15.50;;
9667;SDS011;4872;48.316;10.650;2024-03-06T08:33:34;18.63;;;14.40;;
9667;SDS011;4872;48.316;10.650;2024-03-06T08:36:01;19.37;;;14.73;;
9667;SDS011;4872;48.316;10.650;2024-03-06T08:38:28;19.83;;;15.03;;
9667;SDS011;4872;48.316;10.650;2024-03-06T08:40:55;18.87;;;13.93;;
9667;SDS011;4872;48.316;10.650;2024-03-06T08:43:21;19.83;;;14.77;;
9667;SDS011;4872;48.316;10.650;2024-03-06T08:45:48;17.90;;;14.70;;
9667;SDS011;4872;48.316;10.650;2024-03-06T08:48:15;19.23;;;15.03;;
9667;SDS011;4872;48.316;10.650;2024-03-06T08:50:43;18.43;;;14.60;;
9667;SDS011;4872;48.316;10.650;2024-03-06T08:53:10;17.77;;;13.83;;
9667;SDS011;4872;48.316;10.650;2024-03-06T08:55:38;18.70;;;14.13;;
9667;SDS011;4872;48.316;10.650;2024-03-06T08:58:04;18.63;;;14.83;;
9667;SDS011;4872;48.316;10.650;2024-03-06T09:00:31;18.93;;;14.00;;
9667;SDS011;4872;48.316;10.650;2024-03-06T09:02:58;16.50;;;13.30;;
9667;SDS011;4872;48.316;10.650;2024-03-06T09:05:25;16.73;;;13.03;;
9667;SDS011;4872;48.316;10.650;2024-03-06T09:07:53;15.63;;;12.37;;
9667;SDS011;4872;48.316;10.650;2024-03-06T09:10:22;15.10;;;11.50;;
9667;SDS011;4872;48.316;10.650;2024-03-06T09:12:49;14.20;;;11.50;;
9667;SDS011;4872;48.316;10.650;2024-03-06T09:15:15;14.77;;;10.90;;
9667;SDS011;4872;48.316;10.650;2024-03-06T09:17:43;13.43;;;10.53;;
9667;SDS011;4872;48.316;10.650;2024-03-06T09:20:10;13.83;;;11.23;;
9667;SDS011;4872;48.316;10.650;2024-03-06T09:22:37;13.47;;;10.43;;
9667;SDS011;4872;48.316;10.650;2024-03-06T09:25:06;13.30;;;10.50;;
9667;SDS011;4872;48.316;10.650;2024-03-06T09:27:33;11.40;;;9.63;;
9667;SDS011;4872;48.316;10.650;2024-03-06T09:30:00;12.70;;;10.03;;
9667;SDS011;4872;48.316;10.650;2024-03-06T09:32:27;12.43;;;9.80;;
9667;SDS011;4872;48.316;10.650;2024-03-06T09:34:55;12.10;;;10.33;;
9667;SDS011;4872;48.316;10.650;2024-03-06T09:37:21;14.40;;;11.73;;
9667;SDS011;4872;48.316;10.650;2024-03-06T09:39:48;13.90;;;10.43;;
9667;SDS011;4872;48.316;10.650;2024-03-06T09:42:17;12.10;;;9.80;;
9667;SDS011;4872;48.316;10.650;2024-03-06T09:44:44;14.33;;;10.70;;
9667;SDS011;4872;48.316;10.650;2024-03-06T09:47:13;13.57;;;10.70;;
9667;SDS011;4872;48.316;10.650;2024-03-06T09:49:40;14.30;;;11.00;;
9667;SDS011;4872;48.316;10.650;2024-03-06T09:52:08;17.13;;;12.37;;
9667;SDS011;4872;48.316;10.650;2024-03-06T09:54:35;15.40;;;11.07;;
9667;SDS011;4872;48.316;10.650;2024-03-06T09:57:04;15.10;;;12.07;;
9667;SDS011;4872;48.316;10.650;2024-03-06T09:59:32;18.80;;;12.67;;
9667;SDS011;4872;48.316;10.650;2024-03-06T10:02:00;15.60;;;11.90;;
9667;SDS011;4872;48.316;10.650;2024-03-06T10:04:28;18.37;;;13.70;;
9667;SDS011;4872;48.316;10.650;2024-03-06T10:06:59;18.27;;;13.13;;
9667;SDS011;4872;48.316;10.650;2024-03-06T10:09:27;17.97;;;12.47;;
9667;SDS011;4872;48.316;10.650;2024-03-06T10:11:56;17.87;;;13.53;;
9667;SDS011;4872;48.316;10.650;2024-03-06T10:14:23;17.63;;;12.77;;
9667;SDS011;4872;48.316;10.650;2024-03-06T10:16:55;17.90;;;12.50;;
9667;SDS011;4872;48.316;10.650;2024-03-06T10:19:23;18.50;;;12.60;;
9667;SDS011;4872;48.316;10.650;2024-03-06T10:21:52;19.03;;;13.10;;
9667;SDS011;4872;48.316;10.650;2024-03-06T10:24:19;19.03;;;13.47;;
9667;SDS011;4872;48.316;10.650;2024-03-06T10:26:48;17.20;;;13.20;;
9667;SDS011;4872;48.316;10.650;2024-03-06T10:29:15;16.67;;;13.37;;
9667;SDS011;4872;48.316;10.650;2024-03-06T10:31:50;19.13;;;13.63;;
9667;SDS011;4872;48.316;10.650;2024-03-06T10:34:21;19.63;;;15.10;;
9667;SDS011;4872;48.316;10.650;2024-03-06T10:36:49;20.13;;;15.60;;
9667;SDS011;4872;48.316;10.650;2024-03-06T10:39:20;22.57;;;16.17;;
9667;SDS011;4872;48.316;10.650;2024-03-06T10:41:47;23.13;;;16.30;;
9667;SDS011;4872;48.316;10.650;2024-03-06T10:44:17;24.17;;;16.70;;
9667;SDS011;4872;48.316;10.650;2024-03-06T10:46:47;24.67;;;16.90;;
9667;SDS011;4872;48.316;10.650;2024-03-06T10:49:23;26.23;;;18.00;;
9667;SDS011;4872;48.316;10.650;2024-03-06T10:51:52;24.23;;;18.00;;
9667;SDS011;4872;48.316;10.650;2024-03-06T10:54:23;27.13;;;17.97;;
9667;SDS011;4872;48.316;10.650;2024-03-06T10:56:53;24.03;;;17.93;;
9667;SDS011;4872;48.316;10.650;2024-03-06T10:59:21;22.43;;;17.10;;
9667;SDS011;4872;48.316;10.650;2024-03-06T11:01:53;26.40;;;18.67;;
9667;SDS011;4872;48.316;10.650;2024-03-06T11:04:21;27.67;;;19.20;;
9667;SDS011;4872;48.316;10.650;2024-03-06T11:06:50;25.70;;;18.17;;
9667;SDS011;4872;48.316;10.650;2024-03-06T11:09:17;26.17;;;19.47;;
9667;SDS011;4872;48.316;10.650;2024-03-06T11:11:49;24.47;;;18.03;;
9667;SDS011;4872;48.316;10.650;2024-03-06T11:14:16;24.23;;;17.57;;
9667;SDS011;4872;48.316;10.650;2024-03-06T11:16:56;24.93;;;18.40;;
9667;SDS011;4872;48.316;10.650;2024-03-06T11:19:25;28.47;;;19.20;;
9667;SDS011;4872;48.316;10.650;2024-03-06T11:21:52;27.70;;;19.20;;
9667;SDS011;4872;48.316;10.650;2024-03-06T11:28:02;25.33;;;18.90;;
9667;SDS011;4872;48.316;10.650;2024-03-06T11:30:30;24.77;;;19.07;;
9667;SDS011;4872;48.316;10.650;2024-03-06T11:32:57;24.80;;;18.83;;
9667;SDS011;4872;48.316;10.650;2024-03-06T11:35:28;24.90;;;17.53;;
9667;SDS011;4872;48.316;10.650;2024-03-06T11:37:55;26.53;;;18.17;;
9667;SDS011;4872;48.316;10.650;2024-03-06T11:40:22;26.27;;;19.60;;
9667;SDS011;4872;48.316;10.650;2024-03-06T11:42:50;24.50;;;18.73;;
9667;SDS011;4872;48.316;10.650;2024-03-06T11:45:17;26.60;;;18.27;;
9667;SDS011;4872;48.316;10.650;2024-03-06T11:47:56;26.40;;;18.10;;
9667;SDS011;4872;48.316;10.650;2024-03-06T11:50:25;26.37;;;17.53;;
9667;SDS011;4872;48.316;10.650;2024-03-06T11:52:56;25.37;;;18.27;;
9667;SDS011;4872;48.316;10.650;2024-03-06T11:55:23;29.30;;;19.27;;
9667;SDS011;4872;48.316;10.650;2024-03-06T11:57:51;26.47;;;18.93;;
9667;SDS011;4872;48.316;10.650;2024-03-06T12:00:18;25.53;;;18.47;;
9667;SDS011;4872;48.316;10.650;2024-03-06T12:02:47;25.43;;;19.80;;
9667;SDS011;4872;48.316;10.650;2024-03-06T12:05:15;29.67;;;19.67;;
9667;SDS011;4872;48.316;10.650;2024-03-06T12:07:46;27.20;;;19.90;;
9667;SDS011;4872;48.316;10.650;2024-03-06T12:10:15;26.10;;;17.80;;
9667;SDS011;4872;48.316;10.650;2024-03-06T12:12:42;26.53;;;18.73;;
9667;SDS011;4872;48.316;10.650;2024-03-06T12:15:10;29.87;;;20.00;;
9667;SDS011;4872;48.316;10.650;2024-03-06T12:17:41;27.60;;;20.47;;
9667;SDS011;4872;48.316;10.650;2024-03-06T12:23:08;26.60;;;18.77;;
9667;SDS011;4872;48.316;10.650;2024-03-06T12:25:36;25.10;;;18.07;;
9667;SDS011;4872;48.316;10.650;2024-03-06T12:28:06;25.57;;;18.63;;
9667;SDS011;4872;48.316;10.650;2024-03-06T12:30:38;24.03;;;17.80;;
9667;SDS011;4872;48.316;10.650;2024-03-06T12:33:07;23.47;;;18.07;;
9667;SDS011;4872;48.316;10.650;2024-03-06T12:35:35;25.67;;;17.90;;
9667;SDS011;4872;48.316;10.650;2024-03-06T12:38:11;27.40;;;19.40;;
9667;SDS011;4872;48.316;10.650;2024-03-06T12:40:40;24.73;;;18.47;;
9667;SDS011;4872;48.316;10.650;2024-03-06T12:43:07;21.73;;;17.13;;
9667;SDS011;4872;48.316;10.650;2024-03-06T12:45:34;23.90;;;16.97;;
9667;SDS011;4872;48.316;10.650;2024-03-06T12:48:02;22.80;;;15.67;;
9667;SDS011;4872;48.316;10.650;2024-03-06T12:50:31;25.73;;;17.40;;
9667;SDS011;4872;48.316;10.650;2024-03-06T12:52:58;23.77;;;17.40;;
9667;SDS011;4872;48.316;10.650;2024-03-06T12:55:24;24.53;;;17.37;;
9667;SDS011;4872;48.316;10.650;2024-03-06T12:57:53;24.87;;;17.67;;
9667;SDS011;4872;48.316;10.650;2024-03-06T13:00:19;25.57;;;17.30;;
9667;SDS011;4872;48.316;10.650;2024-03-06T13:02:46;24.93;;;17.30;;
9667;SDS011;4872;48.316;10.650;2024-03-06T13:05:13;25.83;;;18.47;;
9667;SDS011;4872;48.316;10.650;2024-03-06T13:07:40;25.67;;;18.13;;
9667;SDS011;4872;48.316;10.650;2024-03-06T13:10:09;24.53;;;17.33;;
9667;SDS011;4872;48.316;10.650;2024-03-06T13:12:36;24.80;;;17.93;;
9667;SDS011;4872;48.316;10.650;2024-03-06T13:15:05;25.67;;;18.00;;
9667;SDS011;4872;48.316;10.650;2024-03-06T13:17:33;25.63;;;18.90;;
9667;SDS011;4872;48.316;10.650;2024-03-06T13:20:00;24.60;;;18.73;;
9667;SDS011;4872;48.316;10.650;2024-03-06T13:22:27;23.80;;;17.87;;
9667;SDS011;4872;48.316;10.650;2024-03-06T13:24:53;25.10;;;18.53;;
9667;SDS011;4872;48.316;10.650;2024-03-06T13:27:22;28.60;;;19.90;;
9667;SDS011;4872;48.316;10.650;2024-03-06T13:29:49;28.07;;;19.00;;
9667;SDS011;4872;48.316;10.650;2024-03-06T13:32:18;27.77;;;19.23;;
9667;SDS011;4872;48.316;10.650;2024-03-06T13:34:45;27.20;;;19.33;;
9667;SDS011;4872;48.316;10.650;2024-03-06T13:37:11;28.07;;;19.00;;
9667;SDS011;4872;48.316;10.650;2024-03-06T13:39:38;26.87;;;18.97;;
9667;SDS011;4872;48.316;10.650;2024-03-06T13:42:05;30.00;;;19.40;;
9667;SDS011;4872;48.316;10.650;2024-03-06T13:44:33;27.23;;;19.30;;
9667;SDS011;4872;48.316;10.650;2024-03-06T13:46:59;29.07;;;20.70;;
9667;SDS011;4872;48.316;10.650;2024-03-06T13:49:38;27.77;;;20.60;;
9667;SDS011;4872;48.316;10.650;2024-03-06T13:52:17;28.03;;;19.87;;
9667;SDS011;4872;48.316;10.650;2024-03-06T13:54:45;30.03;;;21.77;;
9667;SDS011;4872;48.316;10.650;2024-03-06T13:57:13;23.90;;;15.83;;
9667;SDS011;4872;48.316;10.650;2024-03-06T13:59:40;14.73;;;11.13;;
9667;SDS011;4872;48.316;10.650;2024-03-06T14:02:07;15.53;;;10.83;;
9667;SDS011;4872;48.316;10.650;2024-03-06T14:04:34;13.13;;;10.50;;
9667;SDS011;4872;48.316;10.650;2024-03-06T14:07:03;12.27;;;10.03;;
9667;SDS011;4872;48.316;10.650;2024-03-06T14:09:30;12.10;;;9.83;;
9667;SDS011;4872;48.316;10.650;2024-03-06T14:11:57;12.20;;;9.10;;
9667;SDS011;4872;48.316;10.650;2024-03-06T14:14:24;12.20;;;9.70;;
9667;SDS011;4872;48.316;10.650;2024-03-06T14:16:51;13.37;;;10.30;;
9667;SDS011;4872;48.316;10.650;2024-03-06T14:19:17;12.47;;;9.90;;
9667;SDS011;4872;48.316;10.650;2024-03-06T14:21:44;12.03;;;9.87;;
9667;SDS011;4872;48.316;10.650;2024-03-06T14:24:13;13.73;;;10.43;;
9667;SDS011;4872;48.316;10.650;2024-03-06T14:26:40;14.23;;;10.37;;
9667;SDS011;4872;48.316;10.650;2024-03-06T14:29:07;13.07;;;9.30;;
9667;SDS011;4872;48.316;10.650;2024-03-06T14:31:34;14.93;;;10.90;;
9667;SDS011;4872;48.316;10.650;2024-03-06T14:34:01;14.53;;;9.80;;
9667;SDS011;4872;48.316;10.650;2024-03-06T14:36:28;17.10;;;11.60;;
9667;SDS011;4872;48.316;10.650;2024-03-06T14:38:55;14.30;;;10.13;;
9667;SDS011;4872;48.316;10.650;2024-03-06T14:41:23;13.37;;;10.70;;
9667;SDS011;4872;48.316;10.650;2024-03-06T14:43:50;14.17;;;10.47;;
9667;SDS011;4872;48.316;10.650;2024-03-06T14:46:17;17.67;;;13.07;;
9667;SDS011;4872;48.316;10.650;2024-03-06T14:48:44;13.23;;;10.70;;
9667;SDS011;4872;48.316;10.650;2024-03-06T14:51:11;11.53;;;8.80;;
9667;SDS011;4872;48.316;10.650;2024-03-06T14:53:38;11.67;;;9.30;;
9667;SDS011;4872;48.316;10.650;2024-03-06T14:56:05;10.80;;;8.30;;
9667;SDS011;4872;48.316;10.650;2024-03-06T14:58:34;9.47;;;7.20;;
9667;SDS011;4872;48.316;10.650;2024-03-06T15:01:01;9.47;;;8.07;;
9667;SDS011;4872;48.316;10.650;2024-03-06T15:03:28;10.70;;;7.87;;
9667;SDS011;4872;48.316;10.650;2024-03-06T15:05:55;12.20;;;10.97;;
9667;SDS011;4872;48.316;10.650;2024-03-06T15:08:21;7.67;;;6.83;;
9667;SDS011;4872;48.316;10.650;2024-03-06T15:10:49;8.63;;;5.57;;
9667;SDS011;4872;48.316;10.650;2024-03-06T15:13:18;8.80;;;6.77;;
9667;SDS011;4872;48.316;10.650;2024-03-06T15:15:49;6.57;;;5.77;;
9667;SDS011;4872;48.316;10.650;2024-03-06T15:18:16;8.10;;;5.97;;
9667;SDS011;4872;48.316;10.650;2024-03-06T15:20:43;7.20;;;5.67;;
9667;SDS011;4872;48.316;10.650;2024-03-06T15:23:10;8.67;;;6.30;;
9667;SDS011;4872;48.316;10.650;2024-03-06T15:25:37;7.80;;;5.17;;
9667;SDS011;4872;48.316;10.650;2024-03-06T15:28:04;6.10;;;5.00;;
9667;SDS011;4872;48.316;10.650;2024-03-06T15:30:31;5.40;;;4.70;;
9667;SDS011;4872;48.316;10.650;2024-03-06T15:33:00;6.03;;;4.60;;
9667;SDS011;4872;48.316;10.650;2024-03-06T15:35:28;6.87;;;5.80;;
9667;SDS011;4872;48.316;10.650;2024-03-06T15:37:55;6.20;;;5.33;;
9667;SDS011;4872;48.316;10.650;2024-03-06T15:40:21;6.07;;;5.40;;
9667;SDS011;4872;48.316;10.650;2024-03-06T15:42:49;7.43;;;6.17;;
9667;SDS011;4872;48.316;10.650;2024-03-06T15:45:16;7.53;;;6.10;;
9667;SDS011;4872;48.316;10.650;2024-03-06T15:47:44;24.30;;;16.97;;
9667;SDS011;4872;48.316;10.650;2024-03-06T15:50:12;18.63;;;13.83;;
9667;SDS011;4872;48.316;10.650;2024-03-06T15:52:39;6.83;;;5.40;;
9667;SDS011;4872;48.316;10.650;2024-03-06T15:55:07;6.00;;;5.20;;
9667;SDS011;4872;48.316;10.650;2024-03-06T15:57:34;6.53;;;5.53;;
9667;SDS011;4872;48.316;10.650;2024-03-06T16:00:02;5.30;;;4.77;;
9667;SDS011;4872;48.316;10.650;2024-03-06T16:02:31;7.40;;;5.87;;
9667;SDS011;4872;48.316;10.650;2024-03-06T16:04:58;5.60;;;5.00;;
9667;SDS011;4872;48.316;10.650;2024-03-06T16:07:27;7.47;;;5.73;;
9667;SDS011;4872;48.316;10.650;2024-03-06T16:09:54;6.60;;;5.47;;
9667;SDS011;4872;48.316;10.650;2024-03-06T16:12:21;6.00;;;4.83;;
9667;SDS011;4872;48.316;10.650;2024-03-06T16:14:48;7.20;;;4.83;;
9667;SDS011;4872;48.316;10.650;2024-03-06T16:17:15;6.27;;;4.90;;
9667;SDS011;4872;48.316;10.650;2024-03-06T16:19:42;6.00;;;5.27;;
9667;SDS011;4872;48.316;10.650;2024-03-06T16:22:09;5.77;;;4.90;;
9667;SDS011;4872;48.316;10.650;2024-03-06T16:24:37;6.20;;;5.60;;
9667;SDS011;4872;48.316;10.650;2024-03-06T16:27:05;6.93;;;6.23;;
9667;SDS011;4872;48.316;10.650;2024-03-06T16:29:31;6.50;;;5.43;;
9667;SDS011;4872;48.316;10.650;2024-03-06T16:31:58;6.70;;;5.70;;
9667;SDS011;4872;48.316;10.650;2024-03-06T16:34:27;7.97;;;6.50;;
9667;SDS011;4872;48.316;10.650;2024-03-06T16:36:56;6.97;;;6.27;;
9667;SDS011;4872;48.316;10.650;2024-03-06T16:39:23;7.50;;;6.27;;
9667;SDS011;4872;48.316;10.650;2024-03-06T16:41:51;8.47;;;6.37;;
9667;SDS011;4872;48.316;10.650;2024-03-06T16:44:18;7.20;;;5.57;;
9667;SDS011;4872;48.316;10.650;2024-03-06T16:46:44;6.90;;;6.20;;
9667;SDS011;4872;48.316;10.650;2024-03-06T16:49:11;6.23;;;5.63;;
9667;SDS011;4872;48.316;10.650;2024-03-06T16:51:38;5.80;;;5.20;;
9667;SDS011;4872;48.316;10.650;2024-03-06T16:54:05;5.90;;;5.27;;
9667;SDS011;4872;48.316;10.650;2024-03-06T16:56:32;7.27;;;5.80;;
9667;SDS011;4872;48.316;10.650;2024-03-06T16:59:00;6.73;;;5.67;;
9667;SDS011;4872;48.316;10.650;2024-03-06T17:01:27;6.87;;;5.53;;
9667;SDS011;4872;48.316;10.650;2024-03-06T17:03:55;8.00;;;6.03;;
9667;SDS011;4872;48.316;10.650;2024-03-06T17:06:22;10.60;;;9.50;;
9667;SDS011;4872;48.316;10.650;2024-03-06T17:08:48;7.87;;;6.97;;
9667;SDS011;4872;48.316;10.650;2024-03-06T17:11:15;6.70;;;6.00;;
9667;SDS011;4872;48.316;10.650;2024-03-06T17:13:43;7.63;;;6.17;;
9667;SDS011;4872;48.316;10.650;2024-03-06T17:16:11;7.10;;;6.10;;
9667;SDS011;4872;48.316;10.650;2024-03-06T17:18:38;7.77;;;6.47;;
9667;SDS011;4872;48.316;10.650;2024-03-06T17:21:05;6.83;;;5.93;;
9667;SDS011;4872;48.316;10.650;2024-03-06T17:23:33;6.07;;;5.47;;
9667;SDS011;4872;48.316;10.650;2024-03-06T17:26:01;6.17;;;5.57;;
9667;SDS011;4872;48.316;10.650;2024-03-06T17:28:28;7.10;;;6.33;;
9667;SDS011;4872;48.316;10.650;2024-03-06T17:30:56;6.77;;;5.73;;
9667;SDS011;4872;48.316;10.650;2024-03-06T17:33:24;7.17;;;6.43;;
9667;SDS011;4872;48.316;10.650;2024-03-06T17:35:51;7.53;;;6.30;;
9667;SDS011;4872;48.316;10.650;2024-03-06T17:38:21;8.33;;;7.43;;
9667;SDS011;4872;48.316;10.650;2024-03-06T17:40:50;6.70;;;5.93;;
9667;SDS011;4872;48.316;10.650;2024-03-06T17:43:17;7.80;;;6.37;;
9667;SDS011;4872;48.316;10.650;2024-03-06T17:45:44;7.67;;;5.60;;
9667;SDS011;4872;48.316;10.650;2024-03-06T17:48:11;7.03;;;6.33;;
9667;SDS011;4872;48.316;10.650;2024-03-06T17:50:39;5.73;;;5.07;;
9667;SDS011;4872;48.316;10.650;2024-03-06T17:53:07;6.70;;;5.63;;
9667;SDS011;4872;48.316;10.650;2024-03-06T17:55:34;6.90;;;6.17;;
9667;SDS011;4872;48.316;10.650;2024-03-06T17:58:04;7.57;;;6.87;;
9667;SDS011;4872;48.316;10.650;2024-03-06T18:00:31;8.33;;;7.00;;
9667;SDS011;4872;48.316;10.650;2024-03-06T18:02:59;8.07;;;7.27;;
9667;SDS011;4872;48.316;10.650;2024-03-06T18:05:25;8.90;;;8.10;;
9667;SDS011;4872;48.316;10.650;2024-03-06T18:07:53;8.80;;;7.50;;
9667;SDS011;4872;48.316;10.650;2024-03-06T18:10:21;8.80;;;7.27;;
9667;SDS011;4872;48.316;10.650;2024-03-06T18:12:48;7.70;;;6.90;;
9667;SDS011;4872;48.316;10.650;2024-03-06T18:15:15;7.60;;;6.83;;
9667;SDS011;4872;48.316;10.650;2024-03-06T18:17:43;7.97;;;7.23;;
9667;SDS011;4872;48.316;10.650;2024-03-06T18:20:10;12.83;;;10.53;;
9667;SDS011;4872;48.316;10.650;2024-03-06T18:22:37;11.63;;;9.80;;
9667;SDS011;4872;48.316;10.650;2024-03-06T18:25:06;11.00;;;9.27;;
9667;SDS011;4872;48.316;10.650;2024-03-06T18:27:33;10.97;;;9.87;;
9667;SDS011;4872;48.316;10.650;2024-03-06T18:30:01;11.10;;;9.80;;
9667;SDS011;4872;48.316;10.650;2024-03-06T18:32:28;10.70;;;9.27;;
9667;SDS011;4872;48.316;10.650;2024-03-06T18:34:55;13.27;;;10.93;;
9667;SDS011;4872;48.316;10.650;2024-03-06T18:37:22;12.43;;;10.50;;
9667;SDS011;4872;48.316;10.650;2024-03-06T18:39:49;9.60;;;8.63;;
9667;SDS011;4872;48.316;10.650;2024-03-06T18:42:18;10.20;;;9.20;;
9667;SDS011;4872;48.316;10.650;2024-03-06T18:44:44;10.07;;;8.77;;
9667;SDS011;4872;48.316;10.650;2024-03-06T18:47:12;12.10;;;10.00;;
9667;SDS011;4872;48.316;10.650;2024-03-06T18:49:38;12.10;;;10.10;;
9667;SDS011;4872;48.316;10.650;2024-03-06T18:54:41;11.10;;;9.27;;
9667;SDS011;4872;48.316;10.650;2024-03-06T18:57:08;9.40;;;8.40;;
9667;SDS011;4872;48.316;10.650;2024-03-06T18:59:36;9.40;;;8.40;;
9667;SDS011;4872;48.316;10.650;2024-03-06T19:02:05;9.73;;;8.60;;
9667;SDS011;4872;48.316;10.650;2024-03-06T19:04:32;8.97;;;8.07;;
9667;SDS011;4872;48.316;10.650;2024-03-06T19:07:01;9.93;;;8.60;;
9667;SDS011;4872;48.316;10.650;2024-03-06T19:09:28;9.37;;;8.40;;
9667;SDS011;4872;48.316;10.650;2024-03-06T19:11:58;8.60;;;7.80;;
9667;SDS011;4872;48.316;10.650;2024-03-06T19:14:25;11.67;;;9.60;;
9667;SDS011;4872;48.316;10.650;2024-03-06T19:16:53;12.03;;;10.07;;
9667;SDS011;4872;48.316;10.650;2024-03-06T19:19:20;12.33;;;10.13;;
9667;SDS011;4872;48.316;10.650;2024-03-06T19:21:47;10.70;;;9.60;;
9667;SDS011;4872;48.316;10.650;2024-03-06T19:24:15;12.53;;;10.03;;
9667;SDS011;4872;48.316;10.650;2024-03-06T19:26:42;13.67;;;12.17;;
9667;SDS011;4872;48.316;10.650;2024-03-06T19:29:09;14.60;;;12.90;;
9667;SDS011;4872;48.316;10.650;2024-03-06T19:31:36;14.33;;;12.83;;
9667;SDS011;4872;48.316;10.650;2024-03-06T19:34:04;13.47;;;12.07;;
9667;SDS011;4872;48.316;10.650;2024-03-06T19:36:31;13.30;;;11.90;;
9667;SDS011;4872;48.316;10.650;2024-03-06T19:38:58;12.00;;;10.80;;
9667;SDS011;4872;48.316;10.650;2024-03-06T19:41:25;11.93;;;10.67;;
9667;SDS011;4872;48.316;10.650;2024-03-06T19:43:52;12.47;;;11.13;;
9667;SDS011;4872;48.316;10.650;2024-03-06T19:46:19;13.27;;;11.87;;
9667;SDS011;4872;48.316;10.650;2024-03-06T19:48:46;12.43;;;10.77;;
9667;SDS011;4872;48.316;10.650;2024-03-06T19:51:14;9.40;;;8.47;;
9667;SDS011;4872;48.316;10.650;2024-03-06T19:53:40;10.20;;;9.20;;
9667;SDS011;4872;48.316;10.650;2024-03-06T19:56:07;43.93;;;27.40;;
9667;SDS011;4872;48.316;10.650;2024-03-06T19:58:35;43.90;;;29.03;;